createdAt,value
2022-12-18T00:00:15.826Z,34.13
2022-12-18T00:02:46.148Z,34.33
2022-12-18T00:05:17.042Z,34.05
2022-12-18T00:07:45.826Z,36.58
2022-12-18T00:10:15.364Z,35.65
2022-12-18T00:12:47.091Z,34.08
2022-12-18T00:15:16.021Z,33.63
2022-12-18T00:17:44.819Z,35.72
2022-12-18T00:20:15.015Z,37.40
2022-12-18T00:22:43.672Z,34.72
2022-12-18T00:25:12.226Z,35.00
2022-12-18T00:27:41.041Z,37.63
2022-12-18T00:30:10.857Z,35.20
2022-12-18T00:32:40.261Z,38.03
2022-12-18T00:35:09.621Z,36.15
2022-12-18T00:37:39.707Z,34.03
2022-12-18T00:40:09.636Z,35.50
2022-12-18T00:42:56.409Z,35.20
2022-12-18T00:45:27.251Z,34.63
2022-12-18T00:47:56.505Z,33.50
2022-12-18T00:50:26.191Z,34.38
2022-12-18T00:52:56.368Z,33.15
2022-12-18T00:55:25.205Z,34.13
2022-12-18T00:57:54.104Z,33.45
2022-12-18T01:00:23.122Z,34.47
2022-12-18T01:02:51.886Z,34.10
2022-12-18T01:05:20.770Z,35.15
2022-12-18T01:07:49.421Z,33.55
2022-12-18T01:10:19.943Z,32.85
2022-12-18T01:12:48.568Z,34.13
2022-12-18T01:15:17.818Z,32.03
2022-12-18T01:17:46.637Z,34.55
2022-12-18T01:20:15.946Z,33.65
2022-12-18T01:22:44.720Z,34.97
2022-12-18T01:25:13.534Z,34.13
2022-12-18T01:27:43.687Z,34.10
2022-12-18T01:30:13.182Z,34.92
2022-12-18T01:32:41.765Z,36.05
2022-12-18T01:35:11.072Z,36.17
2022-12-18T01:37:39.744Z,35.22
2022-12-18T01:40:09.781Z,35.92
2022-12-18T01:42:38.554Z,35.60
2022-12-18T01:45:25.898Z,34.60
2022-12-18T01:47:56.305Z,35.33
2022-12-18T01:50:27.151Z,34.10
2022-12-18T01:52:57.600Z,33.38
2022-12-18T01:55:28.707Z,34.75
2022-12-18T01:57:59.734Z,35.60
2022-12-18T02:00:30.472Z,35.97
2022-12-18T02:02:59.226Z,36.63
2022-12-18T02:05:37.206Z,34.72
2022-12-18T02:08:12.022Z,34.63
2022-12-18T02:10:48.086Z,32.72
2022-12-18T02:13:22.937Z,33.58
2022-12-18T02:18:28.111Z,32.03
2022-12-18T02:21:00.377Z,32.40
2022-12-18T02:23:46.657Z,32.55
2022-12-18T02:26:21.094Z,31.88
2022-12-18T02:28:56.929Z,31.50
2022-12-18T02:31:28.125Z,34.10
2022-12-18T02:34:03.841Z,31.70
2022-12-18T02:36:38.989Z,31.80
2022-12-18T02:39:09.521Z,30.20
2022-12-18T02:41:42.641Z,33.10
2022-12-18T02:44:13.450Z,30.83
2022-12-18T02:46:44.695Z,31.63
2022-12-18T02:49:26.643Z,24.15
2022-12-18T02:52:02.735Z,30.48
2022-12-18T02:54:46.116Z,30.70
2022-12-18T02:57:22.323Z,29.63
2022-12-18T02:59:58.271Z,30.20
2022-12-18T03:02:32.644Z,29.50
2022-12-18T03:05:03.639Z,28.08
2022-12-18T03:07:39.992Z,27.20
2022-12-18T03:10:15.535Z,27.40
2022-12-18T03:12:49.957Z,27.65
2022-12-18T03:15:21.049Z,26.35
2022-12-18T03:17:58.974Z,26.58
2022-12-18T03:20:31.892Z,26.77
2022-12-18T03:23:05.065Z,25.17
2022-12-18T03:25:34.034Z,24.08
2022-12-18T03:28:06.251Z,26.27
2022-12-18T03:30:37.055Z,25.45
2022-12-18T03:33:11.263Z,24.83
2022-12-18T03:35:45.462Z,24.38
2022-12-18T03:38:15.102Z,24.55
2022-12-18T03:40:53.233Z,26.15
2022-12-18T03:43:32.957Z,24.48
2022-12-18T03:46:09.116Z,24.02
2022-12-18T03:48:44.170Z,25.08
2022-12-18T03:51:20.389Z,23.48
2022-12-18T03:53:55.773Z,23.00
2022-12-18T03:56:30.783Z,21.80
2022-12-18T03:59:04.155Z,23.23
2022-12-18T04:01:36.360Z,23.48
2022-12-18T04:04:06.141Z,24.48
2022-12-18T04:06:38.156Z,22.58
2022-12-18T04:09:07.490Z,22.15
2022-12-18T04:11:40.371Z,23.17
2022-12-18T04:14:14.401Z,26.92
2022-12-18T04:16:46.550Z,27.25
2022-12-18T04:19:18.548Z,26.33
2022-12-18T04:21:49.895Z,23.83
2022-12-18T04:24:19.869Z,24.70
2022-12-18T04:26:59.466Z,22.65
2022-12-18T04:29:35.374Z,23.98
2022-12-18T04:32:03.914Z,22.55
2022-12-18T04:34:34.349Z,22.75
2022-12-18T04:37:02.996Z,25.52
2022-12-18T04:39:32.585Z,24.52
2022-12-18T04:42:07.014Z,25.70
2022-12-18T04:44:38.236Z,25.42
2022-12-18T04:47:06.849Z,26.90
2022-12-18T04:49:35.497Z,25.55
2022-12-18T04:52:04.240Z,27.13
2022-12-18T04:54:35.642Z,26.40
2022-12-18T04:57:04.380Z,24.85
2022-12-18T04:59:32.981Z,23.58
2022-12-18T05:02:02.953Z,24.58
2022-12-18T05:04:31.594Z,24.35
2022-12-18T05:07:00.203Z,24.50
2022-12-18T05:09:28.817Z,23.00
2022-12-18T05:11:57.520Z,24.55
2022-12-18T05:14:26.181Z,28.30
2022-12-18T05:16:59.233Z,25.55
2022-12-18T05:19:30.833Z,23.65
2022-12-18T05:21:59.446Z,23.52
2022-12-18T05:24:28.290Z,24.48
2022-12-18T05:26:56.838Z,24.08
2022-12-18T05:29:25.641Z,23.08
2022-12-18T05:31:54.340Z,24.90
2022-12-18T05:34:23.246Z,25.73
2022-12-18T05:36:53.165Z,28.60
2022-12-18T05:39:21.774Z,24.77
2022-12-18T05:41:50.409Z,23.98
2022-12-18T05:44:19.126Z,25.20
2022-12-18T05:46:47.718Z,24.60
2022-12-18T05:49:16.437Z,22.65
2022-12-18T05:51:45.044Z,24.23
2022-12-18T05:54:15.011Z,22.13
2022-12-18T05:56:48.498Z,21.50
2022-12-18T05:59:17.486Z,23.63
2022-12-18T06:01:46.187Z,23.13
2022-12-18T06:04:14.946Z,23.38
2022-12-18T06:06:43.759Z,23.17
2022-12-18T06:09:13.859Z,26.48
2022-12-18T06:11:42.425Z,31.90
2022-12-18T06:14:12.684Z,22.65
2022-12-18T06:16:41.281Z,21.52
2022-12-18T06:19:10.039Z,22.70
2022-12-18T06:21:38.689Z,24.50
2022-12-18T06:24:08.141Z,22.83
2022-12-18T06:26:39.854Z,22.75
2022-12-18T06:29:08.552Z,23.10
2022-12-18T06:31:37.281Z,21.33
2022-12-18T06:34:06.670Z,24.17
2022-12-18T06:36:35.586Z,24.63
2022-12-18T06:39:04.586Z,23.58
2022-12-18T06:41:33.183Z,25.08
2022-12-18T06:44:03.302Z,22.77
2022-12-18T06:46:33.210Z,21.92
2022-12-18T06:49:02.024Z,23.67
2022-12-18T06:51:30.888Z,22.85
2022-12-18T06:53:59.536Z,24.70
2022-12-18T06:56:28.907Z,31.00
2022-12-18T06:58:57.632Z,24.17
2022-12-18T07:01:27.675Z,23.10
2022-12-18T07:03:57.385Z,23.30
2022-12-18T07:06:27.731Z,21.52
2022-12-18T07:08:57.004Z,22.25
2022-12-18T07:11:25.783Z,21.67
2022-12-18T07:13:55.368Z,22.98
2022-12-18T07:16:34.379Z,22.00
2022-12-18T07:19:03.074Z,23.02
2022-12-18T07:21:31.714Z,28.85
2022-12-18T07:24:00.460Z,28.05
2022-12-18T07:26:29.026Z,24.38
2022-12-18T07:28:58.646Z,22.20
2022-12-18T07:31:28.219Z,21.98
2022-12-18T07:33:58.365Z,22.55
2022-12-18T07:36:27.122Z,21.10
2022-12-18T07:38:55.883Z,22.60
2022-12-18T07:41:25.084Z,22.65
2022-12-18T07:43:53.742Z,21.90
2022-12-18T07:46:22.428Z,20.75
2022-12-18T07:48:51.213Z,23.30
2022-12-18T07:51:21.185Z,24.23
2022-12-18T07:53:52.074Z,26.15
2022-12-18T07:56:27.599Z,23.77
2022-12-18T07:58:57.563Z,20.67
2022-12-18T08:01:26.498Z,22.42
2022-12-18T08:03:55.308Z,22.95
2022-12-18T08:06:25.369Z,22.27
2022-12-18T08:08:54.645Z,23.80
2022-12-18T08:11:24.184Z,24.23
2022-12-18T08:13:52.880Z,23.30
2022-12-18T08:16:22.040Z,24.17
2022-12-18T08:18:50.984Z,25.15
2022-12-18T08:21:23.820Z,24.25
2022-12-18T08:23:55.081Z,24.35
2022-12-18T08:26:24.299Z,25.25
2022-12-18T08:28:53.624Z,23.55
2022-12-18T08:31:22.644Z,24.35
2022-12-18T08:33:54.239Z,24.77
2022-12-18T08:36:24.003Z,24.45
2022-12-18T08:38:55.091Z,25.70
2022-12-18T08:41:24.346Z,25.23
2022-12-18T08:44:10.764Z,25.13
2022-12-18T08:46:40.808Z,27.70
2022-12-18T08:49:11.011Z,24.38
2022-12-18T08:51:40.088Z,25.25
2022-12-18T08:54:11.367Z,25.33
2022-12-18T08:56:40.060Z,26.00
2022-12-18T08:59:08.667Z,25.23
2022-12-18T09:01:37.617Z,26.05
2022-12-18T09:04:06.403Z,26.02
2022-12-18T09:06:36.788Z,25.00
2022-12-18T09:09:09.102Z,25.25
2022-12-18T09:11:37.726Z,24.58
2022-12-18T09:14:06.365Z,27.55
2022-12-18T09:16:36.060Z,25.08
2022-12-18T09:19:06.385Z,26.48
2022-12-18T09:21:37.579Z,28.02
2022-12-18T09:24:08.578Z,26.98
2022-12-18T09:26:39.251Z,27.52
2022-12-18T09:29:09.231Z,28.70
2022-12-18T09:31:38.516Z,27.60
2022-12-18T09:34:07.080Z,37.22
2022-12-18T09:36:35.854Z,31.40
2022-12-18T09:39:08.124Z,28.80
2022-12-18T09:41:50.984Z,27.55
2022-12-18T09:44:26.986Z,28.90
2022-12-18T09:49:28.099Z,25.90
2022-12-18T09:51:59.340Z,32.40
2022-12-18T09:54:32.049Z,28.10
2022-12-18T09:57:02.053Z,30.00
2022-12-18T09:59:36.595Z,29.27
2022-12-18T10:02:16.610Z,29.98
2022-12-18T10:04:45.712Z,40.88
2022-12-18T10:07:20.730Z,39.63
2022-12-18T10:12:25.909Z,28.25
2022-12-18T10:14:58.134Z,30.42
2022-12-18T10:17:30.425Z,29.02
2022-12-18T10:20:01.805Z,30.65
2022-12-18T10:22:50.915Z,29.50
2022-12-18T10:25:24.375Z,27.55
2022-12-18T10:27:58.469Z,30.65
2022-12-18T10:30:28.136Z,26.93
2022-12-18T10:33:00.729Z,27.58
2022-12-18T10:35:29.824Z,28.90
2022-12-18T10:38:07.667Z,27.52
2022-12-18T10:40:51.509Z,29.23
2022-12-18T10:43:26.150Z,26.88
2022-12-18T10:46:15.782Z,26.20
2022-12-18T10:48:55.568Z,29.33
2022-12-18T10:51:27.119Z,28.05
2022-12-18T10:54:00.089Z,27.25
2022-12-18T10:56:31.481Z,27.23
2022-12-18T10:59:03.107Z,26.23
2022-12-18T11:01:51.726Z,28.05
2022-12-18T11:04:23.289Z,27.98
2022-12-18T11:06:57.528Z,26.17
2022-12-18T11:09:27.341Z,26.75
2022-12-18T11:11:57.025Z,24.35
2022-12-18T11:14:28.958Z,25.35
2022-12-18T11:19:48.379Z,24.35
2022-12-18T11:22:22.924Z,25.08
2022-12-18T11:25:30.233Z,26.02
2022-12-18T11:27:51.742Z,19.83
2022-12-18T11:30:27.293Z,19.53
2022-12-18T11:32:58.536Z,24.10
2022-12-18T11:35:35.204Z,24.40
2022-12-18T11:38:09.317Z,24.30
2022-12-18T11:40:41.240Z,18.60
2022-12-18T11:43:15.434Z,24.90
2022-12-18T11:45:51.882Z,24.98
2022-12-18T11:48:23.550Z,25.55
2022-12-18T11:50:53.427Z,24.55
2022-12-18T11:53:22.971Z,25.05
2022-12-18T11:56:04.534Z,26.50
2022-12-18T11:58:42.880Z,25.25
2022-12-18T12:01:21.250Z,25.23
2022-12-18T12:04:10.747Z,24.80
2022-12-18T12:06:46.910Z,24.15
2022-12-18T12:09:19.809Z,27.83
2022-12-18T12:11:58.639Z,25.08
2022-12-18T12:14:49.110Z,28.17
2022-12-18T12:17:24.915Z,27.63
2022-12-18T12:20:00.149Z,26.70
2022-12-18T12:22:34.909Z,27.00
2022-12-18T12:25:15.554Z,30.70
2022-12-18T12:27:52.550Z,26.48
2022-12-18T12:30:23.688Z,24.63
2022-12-18T12:33:03.150Z,24.85
2022-12-18T12:35:45.141Z,25.73
2022-12-18T12:38:16.127Z,23.75
2022-12-18T12:40:53.780Z,25.20
2022-12-18T12:43:29.550Z,25.67
2022-12-18T12:46:01.008Z,44.92
2022-12-18T12:48:36.843Z,34.13
2022-12-18T12:51:09.773Z,28.13
2022-12-18T12:53:40.819Z,25.95
2022-12-18T12:56:13.369Z,25.55
2022-12-18T12:58:49.178Z,26.73
2022-12-18T13:01:26.658Z,26.17
2022-12-18T13:04:03.381Z,25.45
2022-12-18T13:06:44.378Z,25.48
2022-12-18T13:09:13.639Z,31.13
2022-12-18T13:12:01.233Z,25.63
2022-12-18T13:14:35.088Z,26.45
2022-12-18T13:17:31.115Z,26.13
2022-12-18T13:20:10.215Z,24.77
2022-12-18T13:22:40.547Z,25.45
2022-12-18T13:25:34.032Z,25.27
2022-12-18T13:28:14.580Z,24.60
2022-12-18T13:30:49.405Z,24.25
2022-12-18T13:34:16.567Z,24.42
2022-12-18T13:36:36.256Z,24.05
2022-12-18T13:39:30.234Z,23.63
2022-12-18T13:42:59.899Z,26.48
2022-12-18T13:45:47.345Z,25.08
2022-12-18T13:48:22.239Z,24.33
2022-12-18T13:50:57.284Z,22.42
2022-12-18T13:53:30.137Z,24.38
2022-12-18T13:55:58.922Z,25.10
2022-12-18T13:58:27.601Z,25.73
2022-12-18T14:00:56.353Z,24.42
2022-12-18T14:03:28.200Z,25.10
2022-12-18T14:06:08.230Z,25.23
2022-12-18T14:08:43.386Z,24.48
2022-12-18T14:11:21.704Z,24.40
2022-12-18T14:13:51.145Z,25.10
2022-12-18T14:16:20.828Z,26.30
2022-12-18T14:18:55.497Z,24.33
2022-12-18T14:21:29.356Z,25.20
2022-12-18T14:24:16.743Z,25.30
2022-12-18T14:26:48.664Z,26.80
2022-12-18T14:29:25.398Z,39.22
2022-12-18T14:32:17.439Z,25.88
2022-12-18T14:34:47.769Z,24.42
2022-12-18T14:37:18.687Z,25.85
2022-12-18T14:40:08.641Z,25.40
2022-12-18T14:42:37.518Z,26.60
2022-12-18T14:45:41.831Z,25.88
2022-12-18T14:48:14.570Z,27.92
2022-12-18T14:50:45.550Z,28.10
2022-12-18T14:53:24.172Z,29.20
2022-12-18T14:55:55.296Z,30.13
2022-12-18T14:58:24.960Z,28.95
2022-12-18T15:00:55.800Z,27.25
2022-12-18T15:03:25.353Z,26.80
2022-12-18T15:05:54.831Z,28.90
2022-12-18T15:08:38.844Z,28.17
2022-12-18T15:11:31.138Z,28.88
2022-12-18T15:14:01.725Z,32.95
2022-12-18T15:16:30.912Z,30.33
2022-12-18T15:18:59.971Z,28.50
2022-12-18T15:21:31.629Z,28.48
2022-12-18T15:24:00.577Z,29.10
2022-12-18T15:26:39.855Z,37.10
2022-12-18T15:29:17.715Z,32.90
2022-12-18T15:31:46.708Z,30.65
2022-12-18T15:34:21.467Z,30.60
2022-12-18T15:36:50.400Z,31.08
2022-12-18T15:39:19.226Z,33.05
2022-12-18T15:42:03.370Z,33.75
2022-12-18T15:44:34.613Z,35.03
2022-12-18T15:47:03.680Z,30.88
2022-12-18T15:49:32.249Z,31.02
2022-12-18T15:52:01.556Z,30.38
2022-12-18T15:54:48.027Z,30.17
2022-12-18T15:57:27.510Z,30.92
2022-12-18T15:59:59.221Z,30.73
2022-12-18T16:02:29.382Z,32.03
2022-12-18T16:04:59.084Z,31.70
2022-12-18T16:07:30.567Z,40.03
2022-12-18T16:10:00.405Z,35.08
2022-12-18T16:12:32.846Z,32.75
2022-12-18T16:15:02.632Z,32.25
2022-12-18T16:17:31.299Z,29.45
2022-12-18T16:20:00.421Z,31.48
2022-12-18T16:22:31.113Z,28.65
2022-12-18T16:25:00.380Z,32.35
2022-12-18T16:27:29.402Z,32.05
2022-12-18T16:29:59.545Z,31.00
2022-12-18T16:32:28.220Z,31.90
2022-12-18T16:35:02.100Z,39.92
2022-12-18T16:37:30.806Z,35.65
2022-12-18T16:39:59.528Z,35.83
2022-12-18T16:42:28.345Z,38.53
2022-12-18T16:44:58.466Z,33.22
2022-12-18T16:47:27.145Z,33.60
2022-12-18T16:49:55.991Z,33.50
2022-12-18T16:52:24.832Z,33.65
2022-12-18T16:54:53.540Z,32.88
2022-12-18T16:57:25.205Z,31.65
2022-12-18T16:59:56.081Z,31.55
2022-12-18T17:02:29.265Z,31.90
2022-12-18T17:04:59.019Z,32.67
2022-12-18T17:07:29.057Z,32.60
2022-12-18T17:09:57.831Z,31.77
2022-12-18T17:12:26.940Z,33.22
2022-12-18T17:14:55.727Z,30.95
2022-12-18T17:17:24.516Z,31.90
2022-12-18T17:19:54.739Z,31.55
2022-12-18T17:22:24.125Z,29.73
2022-12-18T17:24:52.819Z,32.03
2022-12-18T17:27:21.647Z,34.45
2022-12-18T17:29:50.476Z,32.20
2022-12-18T17:32:19.423Z,32.40
2022-12-18T17:34:48.347Z,31.55
2022-12-18T17:37:18.452Z,41.15
2022-12-18T17:39:47.306Z,30.95
2022-12-18T17:42:16.041Z,28.17
2022-12-18T17:44:45.138Z,27.70
2022-12-18T17:47:14.708Z,29.98
2022-12-18T17:49:43.505Z,43.67
2022-12-18T17:52:12.668Z,30.27
2022-12-18T17:54:44.138Z,27.83
2022-12-18T17:57:12.827Z,27.08
2022-12-18T17:59:41.485Z,25.48
2022-12-18T18:02:12.077Z,27.27
2022-12-18T18:04:41.011Z,27.48
2022-12-18T18:07:09.932Z,29.75
2022-12-18T18:09:38.862Z,31.60
2022-12-18T18:12:26.735Z,29.42
2022-12-18T18:14:55.665Z,25.45
2022-12-18T18:17:24.396Z,24.52
2022-12-18T18:19:53.129Z,25.08
2022-12-18T18:22:21.950Z,25.13
2022-12-18T18:24:53.546Z,22.52
2022-12-18T18:27:23.703Z,24.42
2022-12-18T18:29:52.784Z,23.10
2022-12-18T18:32:21.594Z,22.98
2022-12-18T18:34:50.622Z,22.42
2022-12-18T18:37:19.918Z,33.25
2022-12-18T18:39:48.947Z,24.38
2022-12-18T18:42:17.668Z,25.65
2022-12-18T18:44:49.142Z,20.65
2022-12-18T18:47:18.184Z,20.98
2022-12-18T18:49:46.961Z,21.58
2022-12-18T18:52:15.741Z,23.95
2022-12-18T18:55:10.723Z,21.48
2022-12-18T18:57:33.803Z,19.45
2022-12-18T19:00:04.151Z,20.58
2022-12-18T19:02:33.149Z,21.42
2022-12-18T19:05:02.069Z,21.80
2022-12-18T19:07:31.444Z,21.23
2022-12-18T19:10:04.476Z,21.30
2022-12-18T19:12:52.903Z,22.30
2022-12-18T19:15:25.081Z,21.73
2022-12-18T19:17:54.879Z,21.63
2022-12-18T19:20:23.804Z,22.23
2022-12-18T19:22:55.927Z,22.00
2022-12-18T19:25:39.993Z,20.95
2022-12-18T19:28:15.983Z,22.52
2022-12-18T19:30:58.744Z,23.85
2022-12-18T19:33:44.820Z,20.90
2022-12-18T19:36:16.408Z,21.40
2022-12-18T19:38:45.726Z,20.23
2022-12-18T19:41:15.540Z,21.05
2022-12-18T19:43:45.417Z,21.20
2022-12-18T19:46:16.879Z,21.45
2022-12-18T19:48:46.246Z,22.23
2022-12-18T19:51:17.675Z,20.55
2022-12-18T19:53:46.941Z,20.23
2022-12-18T19:56:18.124Z,18.77
2022-12-18T19:58:47.788Z,19.90
2022-12-18T20:01:19.970Z,19.02
2022-12-18T20:03:52.585Z,20.45
2022-12-18T20:06:28.016Z,18.90
2022-12-18T20:09:00.308Z,20.08
2022-12-18T20:11:30.147Z,20.80
2022-12-18T20:13:59.083Z,20.38
2022-12-18T20:16:32.196Z,19.52
2022-12-18T20:19:01.205Z,19.95
2022-12-18T20:21:30.561Z,19.65
2022-12-18T20:24:00.053Z,19.52
2022-12-18T20:26:28.999Z,21.00
2022-12-18T20:28:58.322Z,23.35
2022-12-18T20:31:27.114Z,19.83
2022-12-18T20:34:00.378Z,19.35
2022-12-18T20:36:32.931Z,20.00
2022-12-18T20:39:03.953Z,20.58
2022-12-18T20:41:38.001Z,21.17
2022-12-18T20:44:21.686Z,19.80
2022-12-18T20:46:53.308Z,20.20
2022-12-18T20:49:23.824Z,20.63
2022-12-18T20:51:53.381Z,21.65
2022-12-18T20:54:22.453Z,19.80
2022-12-18T20:56:51.467Z,19.33
2022-12-18T20:59:20.246Z,21.75
2022-12-18T21:01:49.732Z,20.85
2022-12-18T21:04:19.367Z,21.85
2022-12-18T21:06:57.784Z,22.08
2022-12-18T21:09:37.436Z,22.25
2022-12-18T21:12:27.450Z,21.20
2022-12-18T21:14:56.008Z,22.00
2022-12-18T21:17:24.779Z,21.42
2022-12-18T21:19:55.705Z,23.25
2022-12-18T21:22:26.062Z,22.70
2022-12-18T21:24:54.971Z,22.20
2022-12-18T21:27:23.574Z,29.90
2022-12-18T21:29:52.668Z,22.00
2022-12-18T21:32:21.389Z,23.90
2022-12-18T21:34:53.124Z,21.90
2022-12-18T21:37:21.872Z,23.65
2022-12-18T21:39:51.895Z,23.80
2022-12-18T21:42:38.259Z,23.95
2022-12-18T21:45:07.557Z,24.83
2022-12-18T21:47:36.293Z,31.25
2022-12-18T21:50:05.528Z,32.45
2022-12-18T21:52:34.211Z,28.25
2022-12-18T21:55:09.594Z,24.20
2022-12-18T21:57:39.604Z,23.63
2022-12-18T22:00:18.169Z,24.45
2022-12-18T22:02:47.932Z,24.65
2022-12-18T22:05:17.014Z,22.88
2022-12-18T22:07:45.750Z,24.92
2022-12-18T22:10:15.968Z,23.10
2022-12-18T22:12:45.838Z,25.40
2022-12-18T22:15:21.074Z,24.08
2022-12-18T22:17:51.151Z,22.83
2022-12-18T22:20:23.114Z,22.83
2022-12-18T22:22:52.587Z,22.35
2022-12-18T22:25:22.533Z,22.98
2022-12-18T22:28:05.087Z,20.88
2022-12-18T22:30:33.884Z,22.58
2022-12-18T22:33:02.578Z,22.00
2022-12-18T22:35:31.336Z,20.70
2022-12-18T22:38:00.261Z,21.52
2022-12-18T22:40:30.560Z,21.98
2022-12-18T22:42:59.471Z,22.10
2022-12-18T22:45:28.686Z,21.95
2022-12-18T22:47:57.688Z,21.45
2022-12-18T22:50:26.519Z,20.55
2022-12-18T22:52:55.123Z,20.55
2022-12-18T22:55:23.817Z,20.70
2022-12-18T22:57:53.826Z,22.15
2022-12-18T23:00:24.612Z,20.55
2022-12-18T23:02:59.774Z,20.58
2022-12-18T23:05:30.372Z,20.08
2022-12-18T23:07:59.437Z,21.33
2022-12-18T23:10:28.363Z,20.90
2022-12-18T23:12:58.425Z,21.92
2022-12-18T23:15:28.241Z,28.05
2022-12-18T23:17:58.605Z,25.90
2022-12-18T23:20:27.741Z,21.95
2022-12-18T23:22:56.698Z,20.13
2022-12-18T23:25:25.421Z,20.65
2022-12-18T23:27:54.327Z,20.73
2022-12-18T23:30:24.671Z,20.25
2022-12-18T23:32:53.474Z,21.38
2022-12-18T23:35:22.560Z,21.42
2022-12-18T23:37:59.797Z,21.70
2022-12-18T23:40:29.831Z,20.02
2022-12-18T23:42:59.629Z,22.63
2022-12-18T23:45:29.686Z,20.80
2022-12-18T23:47:58.505Z,22.25
2022-12-18T23:50:29.585Z,21.90
2022-12-18T23:53:04.970Z,20.85
2022-12-18T23:55:39.426Z,21.63
2022-12-18T23:58:08.601Z,23.67
